Terminal Aerodrome Forecast
Issued by NWS Wilmington, NC

Home | Current Version | Previous Version | Text Only | Print | Product List | Glossary On
Versions: 1 2 3 4 5 6 7 8 9 10 11 12 13 14 15 16 17 18 19 20 21 22 23
000
FTUS42 KILM 272336
TAFMYR
TAF
KMYR 272336Z 2800/2824 03005KT P6SM SCT008 SCT040 OVC080
     FM280900 03007KT 5SM BR SCT005 BKN015
     FM281300 03012KT P6SM VCSH SCT025 BKN035
     FM281800 09008KT P6SM VCTS SCT030CB BKN050
      AMD LTD TO CLD VIS AND WIND 2804/2811=

USA.gov is the U.S. government's official web portal to all federal, state and local government web resources and services.